sensor_id;sensor_type;location;lat;lon;timestamp;temperature;humidity
29777;DHT22;16677;52.224;7.484;2024-02-16T00:01:03;11.60;1.00
29777;DHT22;16677;52.224;7.484;2024-02-16T00:03:30;11.60;1.00
29777;DHT22;16677;52.224;7.484;2024-02-16T00:05:58;11.50;1.00
29777;DHT22;16677;52.224;7.484;2024-02-16T00:08:25;11.40;1.00
29777;DHT22;16677;52.224;7.484;2024-02-16T00:10:52;11.30;1.00
29777;DHT22;16677;52.224;7.484;2024-02-16T00:13:19;11.30;1.00
29777;DHT22;16677;52.224;7.484;2024-02-16T00:15:46;11.20;73.90
29777;DHT22;16677;52.224;7.484;2024-02-16T00:18:13;11.20;99.90
29777;DHT22;16677;52.224;7.484;2024-02-16T00:20:40;11.20;99.90
29777;DHT22;16677;52.224;7.484;2024-02-16T00:23:07;11.20;99.90
29777;DHT22;16677;52.224;7.484;2024-02-16T00:25:33;11.10;99.90
29777;DHT22;16677;52.224;7.484;2024-02-16T00:28:00;11.00;99.90
29777;DHT22;16677;52.224;7.484;2024-02-16T00:30:27;11.00;99.90
29777;DHT22;16677;52.224;7.484;2024-02-16T00:32:54;10.90;99.90
29777;DHT22;16677;52.224;7.484;2024-02-16T00:35:22;10.90;1.00
29777;DHT22;16677;52.224;7.484;2024-02-16T00:37:49;10.90;1.00
29777;DHT22;16677;52.224;7.484;2024-02-16T00:40:16;10.90;1.00
29777;DHT22;16677;52.224;7.484;2024-02-16T00:42:43;10.80;1.00
29777;DHT22;16677;52.224;7.484;2024-02-16T00:45:10;10.70;1.00
29777;DHT22;16677;52.224;7.484;2024-02-16T00:47:37;10.70;99.90
29777;DHT22;16677;52.224;7.484;2024-02-16T00:50:04;10.70;99.90
29777;DHT22;16677;52.224;7.484;2024-02-16T00:52:35;10.70;99.90
29777;DHT22;16677;52.224;7.484;2024-02-16T00:55:02;10.70;1.00
29777;DHT22;16677;52.224;7.484;2024-02-16T00:57:30;10.60;1.00
29777;DHT22;16677;52.224;7.484;2024-02-16T00:59:57;10.70;1.00
29777;DHT22;16677;52.224;7.484;2024-02-16T01:02:24;10.70;1.00
29777;DHT22;16677;52.224;7.484;2024-02-16T01:04:54;10.70;1.00
29777;DHT22;16677;52.224;7.484;2024-02-16T01:07:24;10.70;1.00
29777;DHT22;16677;52.224;7.484;2024-02-16T01:09:51;10.80;1.00
29777;DHT22;16677;52.224;7.484;2024-02-16T01:12:18;10.80;22.70
29777;DHT22;16677;52.224;7.484;2024-02-16T01:14:45;10.80;1.00
29777;DHT22;16677;52.224;7.484;2024-02-16T01:17:12;10.90;1.00
29777;DHT22;16677;52.224;7.484;2024-02-16T01:19:39;10.90;1.00
29777;DHT22;16677;52.224;7.484;2024-02-16T01:22:07;11.00;99.90
29777;DHT22;16677;52.224;7.484;2024-02-16T01:24:33;11.10;99.90
29777;DHT22;16677;52.224;7.484;2024-02-16T01:27:00;11.10;1.00
29777;DHT22;16677;52.224;7.484;2024-02-16T01:29:28;11.10;99.90
29777;DHT22;16677;52.224;7.484;2024-02-16T01:31:55;11.10;99.90
29777;DHT22;16677;52.224;7.484;2024-02-16T01:34:21;11.10;99.90
29777;DHT22;16677;52.224;7.484;2024-02-16T01:36:49;11.10;71.80
29777;DHT22;16677;52.224;7.484;2024-02-16T01:39:15;11.10;1.00
29777;DHT22;16677;52.224;7.484;2024-02-16T01:41:55;11.10;1.00
29777;DHT22;16677;52.224;7.484;2024-02-16T01:44:22;11.10;1.00
29777;DHT22;16677;52.224;7.484;2024-02-16T01:46:49;11.10;1.00
29777;DHT22;16677;52.224;7.484;2024-02-16T01:49:16;11.20;1.00
29777;DHT22;16677;52.224;7.484;2024-02-16T01:51:43;11.30;99.90
29777;DHT22;16677;52.224;7.484;2024-02-16T01:54:11;11.30;99.90
29777;DHT22;16677;52.224;7.484;2024-02-16T01:56:39;11.30;99.90
29777;DHT22;16677;52.224;7.484;2024-02-16T01:59:06;11.30;99.90
29777;DHT22;16677;52.224;7.484;2024-02-16T02:01:33;11.30;99.90
29777;DHT22;16677;52.224;7.484;2024-02-16T02:04:00;11.30;99.90
29777;DHT22;16677;52.224;7.484;2024-02-16T02:06:27;11.30;99.90
29777;DHT22;16677;52.224;7.484;2024-02-16T02:08:54;11.20;99.90
29777;DHT22;16677;52.224;7.484;2024-02-16T02:11:21;11.20;99.90
29777;DHT22;16677;52.224;7.484;2024-02-16T02:13:49;11.10;99.90
29777;DHT22;16677;52.224;7.484;2024-02-16T02:16:16;11.10;99.90
29777;DHT22;16677;52.224;7.484;2024-02-16T02:18:45;10.90;99.90
29777;DHT22;16677;52.224;7.484;2024-02-16T02:21:12;11.00;99.90
29777;DHT22;16677;52.224;7.484;2024-02-16T02:23:41;10.90;99.90
29777;DHT22;16677;52.224;7.484;2024-02-16T02:26:08;10.90;99.90
29777;DHT22;16677;52.224;7.484;2024-02-16T02:28:35;10.90;99.90
29777;DHT22;16677;52.224;7.484;2024-02-16T02:31:01;10.90;99.90
29777;DHT22;16677;52.224;7.484;2024-02-16T02:33:29;10.80;99.90
29777;DHT22;16677;52.224;7.484;2024-02-16T02:35:56;10.80;1.00
29777;DHT22;16677;52.224;7.484;2024-02-16T02:38:23;10.80;1.00
29777;DHT22;16677;52.224;7.484;2024-02-16T02:40:50;10.70;1.00
29777;DHT22;16677;52.224;7.484;2024-02-16T02:43:17;10.70;1.00
29777;DHT22;16677;52.224;7.484;2024-02-16T02:45:45;10.70;1.00
29777;DHT22;16677;52.224;7.484;2024-02-16T02:48:12;10.60;1.00
29777;DHT22;16677;52.224;7.484;2024-02-16T02:50:39;10.60;1.00
29777;DHT22;16677;52.224;7.484;2024-02-16T02:53:06;10.60;1.00
29777;DHT22;16677;52.224;7.484;2024-02-16T02:55:33;10.70;1.00
29777;DHT22;16677;52.224;7.484;2024-02-16T02:58:00;10.70;17.60
29777;DHT22;16677;52.224;7.484;2024-02-16T03:00:27;10.70;1.00
29777;DHT22;16677;52.224;7.484;2024-02-16T03:02:56;10.70;1.00
29777;DHT22;16677;52.224;7.484;2024-02-16T03:05:23;10.70;1.00
29777;DHT22;16677;52.224;7.484;2024-02-16T03:07:50;10.70;1.00
29777;DHT22;16677;52.224;7.484;2024-02-16T03:10:18;10.70;1.00
29777;DHT22;16677;52.224;7.484;2024-02-16T03:12:48;10.70;1.00
29777;DHT22;16677;52.224;7.484;2024-02-16T03:15:16;10.60;1.00
29777;DHT22;16677;52.224;7.484;2024-02-16T03:17:44;10.60;1.00
29777;DHT22;16677;52.224;7.484;2024-02-16T03:20:11;10.60;1.00
29777;DHT22;16677;52.224;7.484;2024-02-16T03:22:38;10.60;1.00
29777;DHT22;16677;52.224;7.484;2024-02-16T03:25:05;10.60;1.00
29777;DHT22;16677;52.224;7.484;2024-02-16T03:27:32;10.60;1.00
29777;DHT22;16677;52.224;7.484;2024-02-16T03:29:59;10.50;1.00
29777;DHT22;16677;52.224;7.484;2024-02-16T03:32:26;10.50;99.90
29777;DHT22;16677;52.224;7.484;2024-02-16T03:34:54;10.50;99.90
29777;DHT22;16677;52.224;7.484;2024-02-16T03:37:23;10.50;99.90
29777;DHT22;16677;52.224;7.484;2024-02-16T03:39:50;10.40;1.00
29777;DHT22;16677;52.224;7.484;2024-02-16T03:42:17;10.50;1.00
29777;DHT22;16677;52.224;7.484;2024-02-16T03:44:46;10.40;1.00
29777;DHT22;16677;52.224;7.484;2024-02-16T03:47:13;10.40;1.00
29777;DHT22;16677;52.224;7.484;2024-02-16T03:49:42;10.50;1.00
29777;DHT22;16677;52.224;7.484;2024-02-16T03:52:09;10.40;1.00
29777;DHT22;16677;52.224;7.484;2024-02-16T03:54:36;10.40;1.00
29777;DHT22;16677;52.224;7.484;2024-02-16T03:57:03;10.40;1.00
29777;DHT22;16677;52.224;7.484;2024-02-16T03:59:32;10.40;1.00
29777;DHT22;16677;52.224;7.484;2024-02-16T04:01:58;10.40;99.90
29777;DHT22;16677;52.224;7.484;2024-02-16T04:04:28;10.40;99.90
29777;DHT22;16677;52.224;7.484;2024-02-16T04:06:55;10.40;99.90
29777;DHT22;16677;52.224;7.484;2024-02-16T04:09:22;10.30;99.90
29777;DHT22;16677;52.224;7.484;2024-02-16T04:11:49;10.30;99.90
29777;DHT22;16677;52.224;7.484;2024-02-16T04:14:15;10.30;99.90
29777;DHT22;16677;52.224;7.484;2024-02-16T04:16:43;10.30;99.90
29777;DHT22;16677;52.224;7.484;2024-02-16T04:19:10;10.30;99.90
29777;DHT22;16677;52.224;7.484;2024-02-16T04:21:37;10.30;99.90
29777;DHT22;16677;52.224;7.484;2024-02-16T04:24:04;10.20;99.90
29777;DHT22;16677;52.224;7.484;2024-02-16T04:26:31;10.30;1.00
29777;DHT22;16677;52.224;7.484;2024-02-16T04:28:58;10.40;1.00
29777;DHT22;16677;52.224;7.484;2024-02-16T04:31:25;10.40;99.90
29777;DHT22;16677;52.224;7.484;2024-02-16T04:33:52;10.50;99.90
29777;DHT22;16677;52.224;7.484;2024-02-16T04:36:20;10.60;99.90
29777;DHT22;16677;52.224;7.484;2024-02-16T04:38:47;10.70;1.00
29777;DHT22;16677;52.224;7.484;2024-02-16T04:41:14;10.50;1.00
29777;DHT22;16677;52.224;7.484;2024-02-16T04:43:42;10.70;1.00
29777;DHT22;16677;52.224;7.484;2024-02-16T04:46:13;10.70;1.00
29777;DHT22;16677;52.224;7.484;2024-02-16T04:48:40;10.80;99.90
29777;DHT22;16677;52.224;7.484;2024-02-16T04:51:07;10.80;99.90
29777;DHT22;16677;52.224;7.484;2024-02-16T04:53:34;10.90;99.90
29777;DHT22;16677;52.224;7.484;2024-02-16T04:56:01;11.00;99.90
29777;DHT22;16677;52.224;7.484;2024-02-16T04:58:28;10.80;66.70
29777;DHT22;16677;52.224;7.484;2024-02-16T05:00:55;10.90;99.90
29777;DHT22;16677;52.224;7.484;2024-02-16T05:03:22;10.90;26.30
29777;DHT22;16677;52.224;7.484;2024-02-16T05:05:49;10.80;75.60
29777;DHT22;16677;52.224;7.484;2024-02-16T05:08:17;10.80;99.90
29777;DHT22;16677;52.224;7.484;2024-02-16T05:10:44;10.80;99.90
29777;DHT22;16677;52.224;7.484;2024-02-16T05:13:10;10.70;99.90
29777;DHT22;16677;52.224;7.484;2024-02-16T05:15:44;10.70;99.90
29777;DHT22;16677;52.224;7.484;2024-02-16T05:18:23;10.80;99.90
29777;DHT22;16677;52.224;7.484;2024-02-16T05:20:51;10.80;99.90
29777;DHT22;16677;52.224;7.484;2024-02-16T05:23:18;10.80;99.90
29777;DHT22;16677;52.224;7.484;2024-02-16T05:25:45;10.80;99.90
29777;DHT22;16677;52.224;7.484;2024-02-16T05:28:12;10.70;99.90
29777;DHT22;16677;52.224;7.484;2024-02-16T05:30:39;10.70;99.90
29777;DHT22;16677;52.224;7.484;2024-02-16T05:33:06;10.80;99.90
29777;DHT22;16677;52.224;7.484;2024-02-16T05:35:33;10.80;87.60
29777;DHT22;16677;52.224;7.484;2024-02-16T05:38:01;10.80;99.90
29777;DHT22;16677;52.224;7.484;2024-02-16T05:40:33;10.80;45.70
29777;DHT22;16677;52.224;7.484;2024-02-16T05:43:12;10.80;12.60
29777;DHT22;16677;52.224;7.484;2024-02-16T05:45:39;10.80;66.40
29777;DHT22;16677;52.224;7.484;2024-02-16T05:48:08;10.80;64.80
29777;DHT22;16677;52.224;7.484;2024-02-16T05:50:37;10.80;99.90
29777;DHT22;16677;52.224;7.484;2024-02-16T05:53:04;10.80;99.90
29777;DHT22;16677;52.224;7.484;2024-02-16T05:55:31;10.80;99.90
29777;DHT22;16677;52.224;7.484;2024-02-16T05:57:58;10.80;99.90
29777;DHT22;16677;52.224;7.484;2024-02-16T06:00:26;10.90;99.90
29777;DHT22;16677;52.224;7.484;2024-02-16T06:02:54;10.80;50.60
29777;DHT22;16677;52.224;7.484;2024-02-16T06:05:21;10.70;94.90
29777;DHT22;16677;52.224;7.484;2024-02-16T06:07:48;10.70;99.90
29777;DHT22;16677;52.224;7.484;2024-02-16T06:10:15;10.70;99.90
29777;DHT22;16677;52.224;7.484;2024-02-16T06:12:42;10.70;99.90
29777;DHT22;16677;52.224;7.484;2024-02-16T06:15:09;10.80;99.90
29777;DHT22;16677;52.224;7.484;2024-02-16T06:17:36;10.80;2.60
29777;DHT22;16677;52.224;7.484;2024-02-16T06:20:04;10.90;1.00
29777;DHT22;16677;52.224;7.484;2024-02-16T06:22:32;10.80;1.00
29777;DHT22;16677;52.224;7.484;2024-02-16T06:24:59;10.80;99.90
29777;DHT22;16677;52.224;7.484;2024-02-16T06:27:26;10.80;99.90
29777;DHT22;16677;52.224;7.484;2024-02-16T06:29:53;10.80;99.90
29777;DHT22;16677;52.224;7.484;2024-02-16T06:32:20;10.70;99.90
29777;DHT22;16677;52.224;7.484;2024-02-16T06:34:47;10.70;99.90
29777;DHT22;16677;52.224;7.484;2024-02-16T06:37:14;10.70;99.90
29777;DHT22;16677;52.224;7.484;2024-02-16T06:39:41;10.70;99.90
29777;DHT22;16677;52.224;7.484;2024-02-16T06:42:09;10.70;99.90
29777;DHT22;16677;52.224;7.484;2024-02-16T06:44:44;10.70;99.90
29777;DHT22;16677;52.224;7.484;2024-02-16T06:47:11;10.60;99.90
29777;DHT22;16677;52.224;7.484;2024-02-16T06:49:38;10.90;99.90
29777;DHT22;16677;52.224;7.484;2024-02-16T06:52:05;11.00;99.90
29777;DHT22;16677;52.224;7.484;2024-02-16T06:54:32;11.00;99.90
29777;DHT22;16677;52.224;7.484;2024-02-16T06:56:59;11.10;99.90
29777;DHT22;16677;52.224;7.484;2024-02-16T06:59:26;11.10;99.90
29777;DHT22;16677;52.224;7.484;2024-02-16T07:01:53;11.10;99.90
29777;DHT22;16677;52.224;7.484;2024-02-16T07:04:20;11.20;59.10
29777;DHT22;16677;52.224;7.484;2024-02-16T07:06:47;11.20;52.70
29777;DHT22;16677;52.224;7.484;2024-02-16T07:09:14;11.40;1.00
29777;DHT22;16677;52.224;7.484;2024-02-16T07:11:42;11.40;1.00
29777;DHT22;16677;52.224;7.484;2024-02-16T07:14:12;11.40;1.00
29777;DHT22;16677;52.224;7.484;2024-02-16T07:16:39;11.50;1.00
29777;DHT22;16677;52.224;7.484;2024-02-16T07:19:06;11.50;1.00
29777;DHT22;16677;52.224;7.484;2024-02-16T07:21:33;11.60;1.00
29777;DHT22;16677;52.224;7.484;2024-02-16T07:24:00;11.60;1.00
29777;DHT22;16677;52.224;7.484;2024-02-16T07:26:28;11.70;1.00
29777;DHT22;16677;52.224;7.484;2024-02-16T07:28:56;11.70;1.00
29777;DHT22;16677;52.224;7.484;2024-02-16T07:31:23;11.80;1.00
29777;DHT22;16677;52.224;7.484;2024-02-16T07:33:50;11.80;1.00
29777;DHT22;16677;52.224;7.484;2024-02-16T07:36:17;11.80;1.00
29777;DHT22;16677;52.224;7.484;2024-02-16T07:38:45;11.80;1.00
29777;DHT22;16677;52.224;7.484;2024-02-16T07:41:12;12.00;99.90
29777;DHT22;16677;52.224;7.484;2024-02-16T07:43:40;12.00;99.90
29777;DHT22;16677;52.224;7.484;2024-02-16T07:46:07;12.00;1.00
29777;DHT22;16677;52.224;7.484;2024-02-16T07:48:34;12.00;1.00
29777;DHT22;16677;52.224;7.484;2024-02-16T07:51:02;12.10;99.90
29777;DHT22;16677;52.224;7.484;2024-02-16T07:53:30;12.10;99.90
29777;DHT22;16677;52.224;7.484;2024-02-16T07:55:57;12.20;99.90
29777;DHT22;16677;52.224;7.484;2024-02-16T07:58:25;12.20;99.90
29777;DHT22;16677;52.224;7.484;2024-02-16T08:00:52;12.30;99.90
29777;DHT22;16677;52.224;7.484;2024-02-16T08:03:21;12.40;99.90
29777;DHT22;16677;52.224;7.484;2024-02-16T08:05:48;12.40;99.90
29777;DHT22;16677;52.224;7.484;2024-02-16T08:08:15;12.40;99.90
29777;DHT22;16677;52.224;7.484;2024-02-16T08:10:42;12.60;99.90
29777;DHT22;16677;52.224;7.484;2024-02-16T08:13:09;12.50;99.90
29777;DHT22;16677;52.224;7.484;2024-02-16T08:15:36;12.50;99.90
29777;DHT22;16677;52.224;7.484;2024-02-16T08:18:03;12.60;99.90
29777;DHT22;16677;52.224;7.484;2024-02-16T08:20:30;12.70;44.00
29777;DHT22;16677;52.224;7.484;2024-02-16T08:22:57;12.80;19.30
29777;DHT22;16677;52.224;7.484;2024-02-16T08:25:25;12.80;1.00
29777;DHT22;16677;52.224;7.484;2024-02-16T08:27:54;12.90;1.00
29777;DHT22;16677;52.224;7.484;2024-02-16T08:30:20;13.00;1.00
29777;DHT22;16677;52.224;7.484;2024-02-16T08:32:47;13.00;1.00
29777;DHT22;16677;52.224;7.484;2024-02-16T08:35:14;13.10;1.00
29777;DHT22;16677;52.224;7.484;2024-02-16T08:37:44;13.20;1.00
29777;DHT22;16677;52.224;7.484;2024-02-16T08:40:14;13.30;1.00
29777;DHT22;16677;52.224;7.484;2024-02-16T08:42:41;13.40;1.00
29777;DHT22;16677;52.224;7.484;2024-02-16T08:45:09;13.50;1.00
29777;DHT22;16677;52.224;7.484;2024-02-16T08:47:36;13.60;1.00
29777;DHT22;16677;52.224;7.484;2024-02-16T08:50:05;13.60;1.00
29777;DHT22;16677;52.224;7.484;2024-02-16T08:52:33;13.70;1.00
29777;DHT22;16677;52.224;7.484;2024-02-16T08:55:00;13.80;1.00
29777;DHT22;16677;52.224;7.484;2024-02-16T08:57:27;13.90;1.00
29777;DHT22;16677;52.224;7.484;2024-02-16T08:59:54;13.90;1.00
29777;DHT22;16677;52.224;7.484;2024-02-16T09:02:23;13.90;1.00
29777;DHT22;16677;52.224;7.484;2024-02-16T09:04:49;13.80;1.00
29777;DHT22;16677;52.224;7.484;2024-02-16T09:07:17;13.90;1.00
29777;DHT22;16677;52.224;7.484;2024-02-16T09:09:44;13.90;1.00
29777;DHT22;16677;52.224;7.484;2024-02-16T09:12:11;13.90;1.00
29777;DHT22;16677;52.224;7.484;2024-02-16T09:14:38;14.00;1.00
29777;DHT22;16677;52.224;7.484;2024-02-16T09:17:05;14.00;1.00
29777;DHT22;16677;52.224;7.484;2024-02-16T09:19:32;14.10;1.00
29777;DHT22;16677;52.224;7.484;2024-02-16T09:22:12;14.20;1.00
29777;DHT22;16677;52.224;7.484;2024-02-16T09:24:39;14.30;1.00
29777;DHT22;16677;52.224;7.484;2024-02-16T09:27:07;14.30;1.00
29777;DHT22;16677;52.224;7.484;2024-02-16T09:29:36;14.30;1.00
29777;DHT22;16677;52.224;7.484;2024-02-16T09:32:03;14.30;1.00
29777;DHT22;16677;52.224;7.484;2024-02-16T09:34:30;14.40;1.00
29777;DHT22;16677;52.224;7.484;2024-02-16T09:36:58;14.60;99.90
29777;DHT22;16677;52.224;7.484;2024-02-16T09:39:24;14.60;99.90
29777;DHT22;16677;52.224;7.484;2024-02-16T09:41:53;14.70;99.90
29777;DHT22;16677;52.224;7.484;2024-02-16T09:44:21;14.60;99.90
29777;DHT22;16677;52.224;7.484;2024-02-16T09:46:48;14.70;99.90
29777;DHT22;16677;52.224;7.484;2024-02-16T09:49:18;14.70;99.90
29777;DHT22;16677;52.224;7.484;2024-02-16T09:51:54;14.60;99.90
29777;DHT22;16677;52.224;7.484;2024-02-16T09:54:23;14.70;99.90
29777;DHT22;16677;52.224;7.484;2024-02-16T09:56:50;14.70;99.90
29777;DHT22;16677;52.224;7.484;2024-02-16T09:59:16;14.70;99.90
29777;DHT22;16677;52.224;7.484;2024-02-16T10:01:43;14.70;99.90
29777;DHT22;16677;52.224;7.484;2024-02-16T10:04:10;14.70;99.90
29777;DHT22;16677;52.224;7.484;2024-02-16T10:06:47;14.70;99.90
29777;DHT22;16677;52.224;7.484;2024-02-16T10:09:23;14.80;99.90
29777;DHT22;16677;52.224;7.484;2024-02-16T10:11:50;14.70;99.90
29777;DHT22;16677;52.224;7.484;2024-02-16T10:14:18;14.70;99.90
29777;DHT22;16677;52.224;7.484;2024-02-16T10:16:47;14.80;99.90
29777;DHT22;16677;52.224;7.484;2024-02-16T10:19:17;14.80;99.90
29777;DHT22;16677;52.224;7.484;2024-02-16T10:21:46;14.80;99.90
29777;DHT22;16677;52.224;7.484;2024-02-16T10:24:13;14.70;99.90
29777;DHT22;16677;52.224;7.484;2024-02-16T10:26:41;14.80;99.90
29777;DHT22;16677;52.224;7.484;2024-02-16T10:29:09;14.80;99.90
29777;DHT22;16677;52.224;7.484;2024-02-16T10:31:37;14.80;99.90
29777;DHT22;16677;52.224;7.484;2024-02-16T10:34:04;14.70;99.90
29777;DHT22;16677;52.224;7.484;2024-02-16T10:36:33;14.70;99.90
29777;DHT22;16677;52.224;7.484;2024-02-16T10:39:01;14.70;99.90
29777;DHT22;16677;52.224;7.484;2024-02-16T10:41:36;14.60;99.90
29777;DHT22;16677;52.224;7.484;2024-02-16T10:44:03;14.60;99.90
29777;DHT22;16677;52.224;7.484;2024-02-16T10:46:31;14.60;99.90
29777;DHT22;16677;52.224;7.484;2024-02-16T10:48:58;14.60;99.90
29777;DHT22;16677;52.224;7.484;2024-02-16T10:51:28;14.60;99.90
29777;DHT22;16677;52.224;7.484;2024-02-16T10:53:58;14.60;99.90
29777;DHT22;16677;52.224;7.484;2024-02-16T10:56:27;14.70;99.90
29777;DHT22;16677;52.224;7.484;2024-02-16T10:58:55;14.60;99.90
29777;DHT22;16677;52.224;7.484;2024-02-16T11:01:22;14.70;99.90
29777;DHT22;16677;52.224;7.484;2024-02-16T11:03:49;14.80;99.90
29777;DHT22;16677;52.224;7.484;2024-02-16T11:06:27;14.80;99.90
29777;DHT22;16677;52.224;7.484;2024-02-16T11:08:54;14.90;99.90
29777;DHT22;16677;52.224;7.484;2024-02-16T11:11:24;14.90;99.90
29777;DHT22;16677;52.224;7.484;2024-02-16T11:13:54;15.00;99.90
29777;DHT22;16677;52.224;7.484;2024-02-16T11:16:20;15.00;99.90
29777;DHT22;16677;52.224;7.484;2024-02-16T11:18:48;15.00;99.90
29777;DHT22;16677;52.224;7.484;2024-02-16T11:21:16;15.00;99.90
29777;DHT22;16677;52.224;7.484;2024-02-16T11:23:44;15.00;99.90
29777;DHT22;16677;52.224;7.484;2024-02-16T11:26:11;15.00;99.90
29777;DHT22;16677;52.224;7.484;2024-02-16T11:28:42;15.00;99.90
29777;DHT22;16677;52.224;7.484;2024-02-16T11:31:09;15.00;99.90
29777;DHT22;16677;52.224;7.484;2024-02-16T11:33:36;15.00;99.90
29777;DHT22;16677;52.224;7.484;2024-02-16T11:36:09;14.90;99.90
29777;DHT22;16677;52.224;7.484;2024-02-16T11:38:37;15.00;99.90
29777;DHT22;16677;52.224;7.484;2024-02-16T11:41:04;15.00;99.90
29777;DHT22;16677;52.224;7.484;2024-02-16T11:43:32;15.00;99.90
29777;DHT22;16677;52.224;7.484;2024-02-16T11:46:11;15.00;99.90
29777;DHT22;16677;52.224;7.484;2024-02-16T11:48:39;14.90;99.90
29777;DHT22;16677;52.224;7.484;2024-02-16T11:51:07;15.00;99.90
29777;DHT22;16677;52.224;7.484;2024-02-16T11:53:34;14.90;99.90
29777;DHT22;16677;52.224;7.484;2024-02-16T11:56:03;14.90;99.90
29777;DHT22;16677;52.224;7.484;2024-02-16T11:58:30;14.90;99.90
29777;DHT22;16677;52.224;7.484;2024-02-16T12:00:58;14.90;99.90
29777;DHT22;16677;52.224;7.484;2024-02-16T12:03:29;14.90;99.90
29777;DHT22;16677;52.224;7.484;2024-02-16T12:05:57;14.80;99.90
29777;DHT22;16677;52.224;7.484;2024-02-16T12:08:31;14.80;99.90
29777;DHT22;16677;52.224;7.484;2024-02-16T12:10:58;14.90;99.90
29777;DHT22;16677;52.224;7.484;2024-02-16T12:13:25;14.80;99.90
29777;DHT22;16677;52.224;7.484;2024-02-16T12:15:52;14.80;99.90
29777;DHT22;16677;52.224;7.484;2024-02-16T12:18:23;14.80;99.90
29777;DHT22;16677;52.224;7.484;2024-02-16T12:23:47;14.80;99.90
29777;DHT22;16677;52.224;7.484;2024-02-16T12:26:14;14.70;99.90
29777;DHT22;16677;52.224;7.484;2024-02-16T12:28:41;14.70;1.00
29777;DHT22;16677;52.224;7.484;2024-02-16T12:31:09;14.50;1.00
29777;DHT22;16677;52.224;7.484;2024-02-16T12:33:36;14.40;99.90
29777;DHT22;16677;52.224;7.484;2024-02-16T12:36:03;14.40;99.90
29777;DHT22;16677;52.224;7.484;2024-02-16T12:38:30;14.20;99.90
29777;DHT22;16677;52.224;7.484;2024-02-16T12:40:58;14.20;99.90
29777;DHT22;16677;52.224;7.484;2024-02-16T12:43:26;14.20;1.00
29777;DHT22;16677;52.224;7.484;2024-02-16T12:45:53;14.00;99.90
29777;DHT22;16677;52.224;7.484;2024-02-16T12:48:20;13.90;99.90
29777;DHT22;16677;52.224;7.484;2024-02-16T12:50:47;13.90;99.90
29777;DHT22;16677;52.224;7.484;2024-02-16T12:53:15;13.80;1.00
29777;DHT22;16677;52.224;7.484;2024-02-16T12:55:43;13.70;1.00
29777;DHT22;16677;52.224;7.484;2024-02-16T12:58:10;13.70;1.00
29777;DHT22;16677;52.224;7.484;2024-02-16T13:00:38;13.70;99.90
29777;DHT22;16677;52.224;7.484;2024-02-16T13:03:05;13.70;1.00
29777;DHT22;16677;52.224;7.484;2024-02-16T13:05:31;13.60;99.90
29777;DHT22;16677;52.224;7.484;2024-02-16T13:07:59;13.50;3.60
29777;DHT22;16677;52.224;7.484;2024-02-16T13:10:26;13.50;99.90
29777;DHT22;16677;52.224;7.484;2024-02-16T13:12:53;13.40;1.00
29777;DHT22;16677;52.224;7.484;2024-02-16T13:15:20;13.40;1.00
29777;DHT22;16677;52.224;7.484;2024-02-16T13:17:53;13.40;1.00
29777;DHT22;16677;52.224;7.484;2024-02-16T13:20:21;13.40;1.00
29777;DHT22;16677;52.224;7.484;2024-02-16T13:22:48;13.40;1.00
29777;DHT22;16677;52.224;7.484;2024-02-16T13:25:15;13.50;1.00
29777;DHT22;16677;52.224;7.484;2024-02-16T13:27:42;13.40;1.00
29777;DHT22;16677;52.224;7.484;2024-02-16T13:30:09;13.40;1.00
29777;DHT22;16677;52.224;7.484;2024-02-16T13:32:36;13.30;1.00
29777;DHT22;16677;52.224;7.484;2024-02-16T13:35:07;13.30;99.90
29777;DHT22;16677;52.224;7.484;2024-02-16T13:37:34;13.30;99.90
29777;DHT22;16677;52.224;7.484;2024-02-16T13:40:01;13.30;99.90
29777;DHT22;16677;52.224;7.484;2024-02-16T13:42:33;13.30;1.00
29777;DHT22;16677;52.224;7.484;2024-02-16T13:45:00;13.20;1.00
29777;DHT22;16677;52.224;7.484;2024-02-16T13:47:27;13.20;1.00
29777;DHT22;16677;52.224;7.484;2024-02-16T13:49:54;13.20;1.00
29777;DHT22;16677;52.224;7.484;2024-02-16T13:52:24;13.10;99.90
29777;DHT22;16677;52.224;7.484;2024-02-16T13:54:51;13.20;1.00
29777;DHT22;16677;52.224;7.484;2024-02-16T14:00:03;13.20;1.00
29777;DHT22;16677;52.224;7.484;2024-02-16T14:02:32;13.20;1.00
29777;DHT22;16677;52.224;7.484;2024-02-16T14:04:59;13.20;99.90
29777;DHT22;16677;52.224;7.484;2024-02-16T14:07:27;13.10;99.90
29777;DHT22;16677;52.224;7.484;2024-02-16T14:09:54;13.10;1.00
29777;DHT22;16677;52.224;7.484;2024-02-16T14:12:21;13.10;99.90
29777;DHT22;16677;52.224;7.484;2024-02-16T14:14:48;13.10;1.00
29777;DHT22;16677;52.224;7.484;2024-02-16T14:17:14;13.10;1.00
29777;DHT22;16677;52.224;7.484;2024-02-16T14:19:41;13.10;1.00
29777;DHT22;16677;52.224;7.484;2024-02-16T14:22:08;13.10;1.00
29777;DHT22;16677;52.224;7.484;2024-02-16T14:24:37;13.10;1.00
29777;DHT22;16677;52.224;7.484;2024-02-16T14:27:04;13.00;1.00
29777;DHT22;16677;52.224;7.484;2024-02-16T14:29:31;13.00;1.00
29777;DHT22;16677;52.224;7.484;2024-02-16T14:31:58;13.10;1.00
29777;DHT22;16677;52.224;7.484;2024-02-16T14:34:26;13.00;99.90
29777;DHT22;16677;52.224;7.484;2024-02-16T14:36:54;13.00;1.00
29777;DHT22;16677;52.224;7.484;2024-02-16T14:39:21;13.00;99.90
29777;DHT22;16677;52.224;7.484;2024-02-16T14:41:49;13.00;1.00
29777;DHT22;16677;52.224;7.484;2024-02-16T14:44:16;13.00;1.00
29777;DHT22;16677;52.224;7.484;2024-02-16T14:46:43;13.10;1.00
29777;DHT22;16677;52.224;7.484;2024-02-16T14:49:10;13.00;99.90
29777;DHT22;16677;52.224;7.484;2024-02-16T14:51:40;13.00;99.90
29777;DHT22;16677;52.224;7.484;2024-02-16T14:54:07;13.10;99.90
29777;DHT22;16677;52.224;7.484;2024-02-16T14:56:36;13.00;42.20
29777;DHT22;16677;52.224;7.484;2024-02-16T14:59:03;13.10;99.90
29777;DHT22;16677;52.224;7.484;2024-02-16T15:01:31;13.10;99.90
29777;DHT22;16677;52.224;7.484;2024-02-16T15:03:58;13.20;1.00
29777;DHT22;16677;52.224;7.484;2024-02-16T15:06:26;13.10;1.00
29777;DHT22;16677;52.224;7.484;2024-02-16T15:08:53;13.10;1.00
29777;DHT22;16677;52.224;7.484;2024-02-16T15:11:20;13.00;1.00
29777;DHT22;16677;52.224;7.484;2024-02-16T15:13:47;13.00;1.00
29777;DHT22;16677;52.224;7.484;2024-02-16T15:16:15;13.00;1.00
29777;DHT22;16677;52.224;7.484;2024-02-16T15:18:42;12.90;99.90
29777;DHT22;16677;52.224;7.484;2024-02-16T15:21:09;12.90;99.90
29777;DHT22;16677;52.224;7.484;2024-02-16T15:23:36;12.80;99.90
29777;DHT22;16677;52.224;7.484;2024-02-16T15:26:03;12.80;1.00
29777;DHT22;16677;52.224;7.484;2024-02-16T15:28:32;12.80;1.00
29777;DHT22;16677;52.224;7.484;2024-02-16T15:30:58;12.70;1.00
29777;DHT22;16677;52.224;7.484;2024-02-16T15:33:25;12.70;1.00
29777;DHT22;16677;52.224;7.484;2024-02-16T15:35:53;12.60;1.00
29777;DHT22;16677;52.224;7.484;2024-02-16T15:38:20;12.60;1.00
29777;DHT22;16677;52.224;7.484;2024-02-16T15:40:47;12.60;1.00
29777;DHT22;16677;52.224;7.484;2024-02-16T15:43:14;12.50;1.00
29777;DHT22;16677;52.224;7.484;2024-02-16T15:45:40;12.60;1.00